createdAt,value
2023-05-23T00:02:00.418Z,14.12
2023-05-23T00:04:28.247Z,14.14
2023-05-23T00:06:56.532Z,14.10
2023-05-23T00:09:24.338Z,14.10
2023-05-23T00:11:51.988Z,14.15
2023-05-23T00:14:19.732Z,14.17
2023-05-23T00:16:50.732Z,14.17
2023-05-23T00:19:18.818Z,14.24
2023-05-23T00:21:49.517Z,14.28
2023-05-23T00:24:18.758Z,14.25
2023-05-23T00:26:46.976Z,14.23
2023-05-23T00:29:17.496Z,14.30
2023-05-23T00:31:46.700Z,14.33
2023-05-23T00:34:17.742Z,14.30
2023-05-23T00:36:47.764Z,14.33
2023-05-23T00:39:19.701Z,14.40
2023-05-23T00:41:51.117Z,14.41
2023-05-23T00:44:21.232Z,14.45
2023-05-23T00:46:52.439Z,14.49
2023-05-23T00:49:21.894Z,14.49
2023-05-23T00:51:50.398Z,14.46
2023-05-23T00:54:21.992Z,14.46
2023-05-23T00:56:49.670Z,14.44
2023-05-23T00:59:17.721Z,14.38
2023-05-23T01:01:46.927Z,14.35
2023-05-23T01:04:16.702Z,14.34
2023-05-23T01:06:46.988Z,14.33
2023-05-23T01:09:15.988Z,14.22
2023-05-23T01:11:50.691Z,14.21
2023-05-23T01:14:23.360Z,14.24
2023-05-23T01:16:57.866Z,14.25
2023-05-23T01:19:49.486Z,14.24
2023-05-23T01:22:30.402Z,14.21
2023-05-23T01:25:08.499Z,14.23
2023-05-23T01:27:50.404Z,14.25
2023-05-23T01:30:21.681Z,14.28
2023-05-23T01:32:51.882Z,14.30
2023-05-23T01:35:23.451Z,14.24
2023-05-23T01:37:51.090Z,14.23
2023-05-23T01:40:18.766Z,14.28
2023-05-23T01:42:48.651Z,14.32
2023-05-23T01:45:17.452Z,14.32
2023-05-23T01:47:47.114Z,14.35
2023-05-23T01:50:15.769Z,14.35
2023-05-23T01:52:43.803Z,14.38
2023-05-23T01:55:11.904Z,14.41
2023-05-23T01:57:40.538Z,14.39
2023-05-23T02:00:12.133Z,14.40
2023-05-23T02:02:40.098Z,14.42
2023-05-23T02:05:08.398Z,14.32
2023-05-23T02:07:36.099Z,14.31
2023-05-23T02:10:05.104Z,14.23
2023-05-23T02:12:32.740Z,14.19
2023-05-23T02:15:00.422Z,14.14
2023-05-23T02:17:29.384Z,14.13
2023-05-23T02:19:57.363Z,14.12
2023-05-23T02:22:25.588Z,14.08
2023-05-23T02:24:53.410Z,14.02
2023-05-23T02:27:21.059Z,14.03
2023-05-23T02:29:48.714Z,14.05
2023-05-23T02:32:16.410Z,14.08
2023-05-23T02:34:46.518Z,14.06
2023-05-23T02:37:15.025Z,14.06
2023-05-23T02:39:42.785Z,13.99
2023-05-23T02:42:10.876Z,13.99
2023-05-23T02:44:38.613Z,14.03
2023-05-23T02:47:07.686Z,14.00
2023-05-23T02:49:35.358Z,13.90
2023-05-23T02:52:04.322Z,13.89
2023-05-23T02:54:32.129Z,13.90
2023-05-23T02:56:59.762Z,13.83
2023-05-23T02:59:27.383Z,13.84
2023-05-23T03:01:56.650Z,13.79
2023-05-23T03:04:24.329Z,13.78
2023-05-23T03:06:54.330Z,13.81
2023-05-23T03:09:23.354Z,13.78
2023-05-23T03:11:51.162Z,13.73
2023-05-23T03:14:18.813Z,13.69
2023-05-23T03:16:46.526Z,13.59
2023-05-23T03:19:14.537Z,13.61
2023-05-23T03:21:42.176Z,13.61
2023-05-23T03:24:09.794Z,13.60
2023-05-23T03:26:38.789Z,13.60
2023-05-23T03:29:07.140Z,13.59
2023-05-23T03:31:34.766Z,13.56
2023-05-23T03:34:02.469Z,13.52
2023-05-23T03:36:33.185Z,13.56
2023-05-23T03:39:01.223Z,13.53
2023-05-23T03:41:28.844Z,13.55
2023-05-23T03:43:58.402Z,13.55
2023-05-23T03:46:26.155Z,13.54
2023-05-23T03:48:53.880Z,13.56
2023-05-23T03:51:21.507Z,13.60
2023-05-23T03:53:49.118Z,13.69
2023-05-23T03:56:16.843Z,13.71
2023-05-23T03:58:44.596Z,13.71
2023-05-23T04:01:13.526Z,13.77
2023-05-23T04:03:41.359Z,13.80
2023-05-23T04:06:09.210Z,13.86
2023-05-23T04:08:36.793Z,13.92
2023-05-23T04:11:04.551Z,13.95
2023-05-23T04:13:33.212Z,14.00
2023-05-23T04:16:01.455Z,14.03
2023-05-23T04:18:30.451Z,14.03
2023-05-23T04:20:58.236Z,14.03
2023-05-23T04:23:25.901Z,14.00
2023-05-23T04:25:53.520Z,14.01
2023-05-23T04:28:21.201Z,14.02
2023-05-23T04:30:49.459Z,13.98
2023-05-23T04:33:18.847Z,14.02
2023-05-23T04:35:47.920Z,14.09
2023-05-23T04:38:15.636Z,14.05
2023-05-23T04:40:43.238Z,14.00
2023-05-23T04:43:14.289Z,14.02
2023-05-23T04:45:42.751Z,14.04
2023-05-23T04:48:13.065Z,14.01
2023-05-23T04:50:40.797Z,14.04
2023-05-23T04:53:09.785Z,14.03
2023-05-23T04:55:37.549Z,14.07
2023-05-23T04:58:05.381Z,14.09
2023-05-23T05:00:33.115Z,14.08
2023-05-23T05:03:01.025Z,14.15
2023-05-23T05:05:28.764Z,14.13
2023-05-23T05:07:56.394Z,13.97
2023-05-23T05:10:25.414Z,13.88
2023-05-23T05:12:53.066Z,13.89
2023-05-23T05:15:20.812Z,13.73
2023-05-23T05:17:49.986Z,13.68
2023-05-23T05:20:18.339Z,13.67
2023-05-23T05:22:46.691Z,13.70
2023-05-23T05:25:14.317Z,13.61
2023-05-23T05:27:43.692Z,13.55
2023-05-23T05:30:12.145Z,13.61
2023-05-23T05:32:39.763Z,13.62
2023-05-23T05:35:09.215Z,13.62
2023-05-23T05:37:36.954Z,13.51
2023-05-23T05:40:08.385Z,13.51
2023-05-23T05:42:35.959Z,13.52
2023-05-23T05:45:05.635Z,13.48
2023-05-23T05:47:34.391Z,13.48
2023-05-23T05:50:03.323Z,13.45
2023-05-23T05:52:31.145Z,13.51
2023-05-23T05:54:58.910Z,13.54
2023-05-23T05:57:26.565Z,13.55
2023-05-23T05:59:54.138Z,13.53
2023-05-23T06:02:23.213Z,13.54
2023-05-23T06:04:51.053Z,13.51
2023-05-23T06:07:18.735Z,13.42
2023-05-23T06:09:46.713Z,13.43
2023-05-23T06:12:14.369Z,13.34
2023-05-23T06:14:42.034Z,13.22
2023-05-23T06:17:10.039Z,13.12
2023-05-23T06:19:39.700Z,13.09
2023-05-23T06:22:07.342Z,12.93
2023-05-23T06:24:35.046Z,12.87
2023-05-23T06:27:02.805Z,12.81
2023-05-23T06:29:31.634Z,12.76
2023-05-23T06:31:59.207Z,12.80
2023-05-23T06:34:26.851Z,12.84
2023-05-23T06:36:55.843Z,12.89
2023-05-23T06:39:23.550Z,12.97
2023-05-23T06:41:51.325Z,13.10
2023-05-23T06:44:19.125Z,13.22
2023-05-23T06:46:47.519Z,13.49
2023-05-23T06:49:16.103Z,13.54
2023-05-23T06:51:43.849Z,13.60
2023-05-23T06:54:12.988Z,13.67
2023-05-23T06:56:40.651Z,13.64
2023-05-23T06:59:08.296Z,13.58
2023-05-23T07:01:36.238Z,13.57
2023-05-23T07:04:03.831Z,13.41
2023-05-23T07:06:32.788Z,13.16
2023-05-23T07:09:00.508Z,12.97
2023-05-23T07:11:29.484Z,12.81
2023-05-23T07:13:57.290Z,12.72
2023-05-23T07:16:25.046Z,12.57
2023-05-23T07:18:52.832Z,12.42
2023-05-23T07:21:20.613Z,12.36
2023-05-23T07:23:48.257Z,12.19
2023-05-23T07:26:16.141Z,12.07
2023-05-23T07:28:45.238Z,11.95
2023-05-23T07:31:13.554Z,11.95
2023-05-23T07:33:41.393Z,11.83
2023-05-23T07:36:09.754Z,11.74
2023-05-23T07:38:37.437Z,11.80
2023-05-23T07:41:11.528Z,11.81
2023-05-23T07:43:40.226Z,11.81
2023-05-23T07:46:09.317Z,11.82
2023-05-23T07:48:37.028Z,11.75
2023-05-23T07:51:04.948Z,11.79
2023-05-23T07:53:32.546Z,11.64
2023-05-23T07:56:00.182Z,11.58
2023-05-23T07:58:27.910Z,11.49
2023-05-23T08:00:55.587Z,11.52
2023-05-23T08:03:24.567Z,11.57
2023-05-23T08:05:52.167Z,11.68
2023-05-23T08:08:19.803Z,11.62
2023-05-23T08:10:47.425Z,11.62
2023-05-23T08:13:15.117Z,11.65
2023-05-23T08:15:42.881Z,11.75
2023-05-23T08:18:11.320Z,11.75
2023-05-23T08:20:40.439Z,11.82
2023-05-23T08:23:08.245Z,11.89
2023-05-23T08:25:36.340Z,11.79
2023-05-23T08:28:04.028Z,11.84
2023-05-23T08:30:33.806Z,11.83
2023-05-23T08:33:04.591Z,11.94
2023-05-23T08:35:35.112Z,11.92
2023-05-23T08:38:05.954Z,11.97
2023-05-23T08:40:33.641Z,12.24
2023-05-23T08:43:01.422Z,12.18
2023-05-23T08:45:30.419Z,12.17
2023-05-23T08:48:01.987Z,12.27
2023-05-23T08:50:31.005Z,12.32
2023-05-23T08:53:00.151Z,12.36
2023-05-23T08:55:30.622Z,12.52
2023-05-23T08:58:00.298Z,12.47
2023-05-23T09:00:29.298Z,12.31
2023-05-23T09:02:58.247Z,12.20
2023-05-23T09:05:27.755Z,12.20
2023-05-23T09:07:56.818Z,12.28
2023-05-23T09:10:24.871Z,12.15
2023-05-23T09:12:53.937Z,12.29
2023-05-23T09:15:22.349Z,12.32
2023-05-23T09:17:50.469Z,12.47
2023-05-23T09:20:19.418Z,12.30
2023-05-23T09:22:48.600Z,12.25
2023-05-23T09:25:16.538Z,12.44
2023-05-23T09:27:47.810Z,12.55
2023-05-23T09:30:19.020Z,12.70
2023-05-23T09:33:02.040Z,12.77
2023-05-23T09:35:31.885Z,12.78
2023-05-23T09:38:00.322Z,12.70
2023-05-23T09:40:32.515Z,12.67
2023-05-23T09:43:03.996Z,12.48
2023-05-23T09:45:33.862Z,12.48
2023-05-23T09:48:01.727Z,12.42
2023-05-23T09:50:33.302Z,12.44
2023-05-23T09:53:01.320Z,12.54
2023-05-23T09:55:29.123Z,12.63
2023-05-23T09:57:59.635Z,12.89
2023-05-23T10:00:28.672Z,13.01
2023-05-23T10:03:08.112Z,13.11
2023-05-23T10:05:39.691Z,13.14
2023-05-23T10:08:11.908Z,13.15
2023-05-23T10:11:12.191Z,13.35
2023-05-23T10:13:42.487Z,13.85
2023-05-23T10:16:16.006Z,14.06
2023-05-23T10:18:46.256Z,13.97
2023-05-23T10:21:20.863Z,14.19
2023-05-23T10:23:49.112Z,14.36
2023-05-23T10:26:18.003Z,14.00
2023-05-23T10:28:47.394Z,13.98
2023-05-23T10:31:15.432Z,14.05
2023-05-23T10:33:52.459Z,14.14
2023-05-23T10:36:26.411Z,14.15
2023-05-23T10:38:59.722Z,14.23
2023-05-23T10:41:45.470Z,14.17
2023-05-23T10:44:17.856Z,14.39
2023-05-23T10:46:54.099Z,14.53
2023-05-23T10:49:23.533Z,14.17
2023-05-23T10:51:52.483Z,14.26
2023-05-23T10:54:21.128Z,14.33
2023-05-23T10:57:03.882Z,14.38
2023-05-23T10:59:32.006Z,14.36
2023-05-23T11:02:01.961Z,14.15
2023-05-23T11:04:31.037Z,14.37
2023-05-23T11:06:59.358Z,14.70
2023-05-23T11:09:27.043Z,15.07
2023-05-23T11:11:58.029Z,15.04
2023-05-23T11:14:55.545Z,14.75
2023-05-23T11:17:34.362Z,14.73
2023-05-23T11:20:07.358Z,14.65
2023-05-23T11:22:36.096Z,14.74
2023-05-23T11:25:08.973Z,14.64
2023-05-23T11:27:38.790Z,14.58
2023-05-23T11:30:09.908Z,14.57
2023-05-23T11:32:38.390Z,14.46
2023-05-23T11:35:09.855Z,14.35
2023-05-23T11:37:39.397Z,14.47
2023-05-23T11:40:30.102Z,14.61
2023-05-23T11:42:58.355Z,14.48
2023-05-23T11:45:26.760Z,14.74
2023-05-23T11:47:54.982Z,14.69
2023-05-23T11:50:24.911Z,14.68
2023-05-23T11:52:52.754Z,14.81
2023-05-23T11:55:21.653Z,14.80
2023-05-23T11:57:49.812Z,14.68
2023-05-23T12:00:18.815Z,14.80
2023-05-23T12:02:47.895Z,14.78
2023-05-23T12:05:16.260Z,14.91
2023-05-23T12:07:46.394Z,14.81
2023-05-23T12:10:15.416Z,14.79
2023-05-23T12:12:43.457Z,15.04
2023-05-23T12:15:12.259Z,15.02
2023-05-23T12:17:40.940Z,14.82
2023-05-23T12:20:09.266Z,14.70
2023-05-23T12:22:36.972Z,14.92
2023-05-23T12:25:09.921Z,14.77
2023-05-23T12:27:37.926Z,14.82
2023-05-23T12:30:07.349Z,15.18
2023-05-23T12:32:35.545Z,15.23
2023-05-23T12:35:04.892Z,15.14
2023-05-23T12:37:32.864Z,15.11
2023-05-23T12:40:13.055Z,15.67
2023-05-23T12:42:50.966Z,15.47
2023-05-23T12:45:18.908Z,15.23
2023-05-23T12:47:46.685Z,14.98
2023-05-23T12:50:14.335Z,14.93
2023-05-23T12:52:41.980Z,14.77
2023-05-23T12:55:11.969Z,14.49
2023-05-23T12:57:39.727Z,14.82
2023-05-23T13:00:09.213Z,14.63
2023-05-23T13:02:37.217Z,14.43
2023-05-23T13:05:05.130Z,14.47
2023-05-23T13:07:33.546Z,14.53
2023-05-23T13:10:01.704Z,14.99
2023-05-23T13:12:30.962Z,14.83
2023-05-23T13:14:58.986Z,14.75
2023-05-23T13:17:26.788Z,15.09
2023-05-23T13:19:54.470Z,14.92
2023-05-23T13:22:22.112Z,14.68
2023-05-23T13:24:49.762Z,14.61
2023-05-23T13:27:17.513Z,14.43
2023-05-23T13:29:46.771Z,14.20
2023-05-23T13:32:14.374Z,13.92
2023-05-23T13:34:42.700Z,13.82
2023-05-23T13:37:10.433Z,13.83
2023-05-23T13:39:38.118Z,13.71
2023-05-23T13:42:06.125Z,13.48
2023-05-23T13:44:33.703Z,13.63
2023-05-23T13:47:13.275Z,13.72
2023-05-23T13:49:41.741Z,13.81
2023-05-23T13:52:09.501Z,13.64
2023-05-23T13:54:37.353Z,13.47
2023-05-23T13:57:05.608Z,13.23
2023-05-23T13:59:33.375Z,13.39
2023-05-23T14:02:01.195Z,13.32
2023-05-23T14:04:30.165Z,13.35
2023-05-23T14:06:57.773Z,13.56
2023-05-23T14:09:25.588Z,13.56
2023-05-23T14:11:53.704Z,13.40
2023-05-23T14:14:21.340Z,13.34
2023-05-23T14:16:51.901Z,13.41
2023-05-23T14:19:19.798Z,13.39
2023-05-23T14:21:48.837Z,13.38
2023-05-23T14:24:16.636Z,13.19
2023-05-23T14:26:44.329Z,13.22
2023-05-23T14:29:12.067Z,13.39
2023-05-23T14:31:39.788Z,13.51
2023-05-23T14:34:07.527Z,13.23
2023-05-23T14:36:36.919Z,13.40
2023-05-23T14:39:09.091Z,13.26
2023-05-23T14:41:38.737Z,13.10
2023-05-23T14:44:06.792Z,13.16
2023-05-23T14:46:34.607Z,12.95
2023-05-23T14:49:02.302Z,12.94
2023-05-23T14:51:44.624Z,13.15
2023-05-23T14:54:17.996Z,13.18
2023-05-23T14:56:45.641Z,13.09
2023-05-23T14:59:13.639Z,13.06
2023-05-23T15:01:41.692Z,12.92
2023-05-23T15:04:10.314Z,12.93
2023-05-23T15:06:38.362Z,13.00
2023-05-23T15:09:06.062Z,12.73
2023-05-23T15:11:37.069Z,12.79
2023-05-23T15:14:04.846Z,12.89
2023-05-23T15:16:33.319Z,12.75
2023-05-23T15:19:01.512Z,12.67
2023-05-23T15:21:29.494Z,12.70
2023-05-23T15:23:57.728Z,12.80
2023-05-23T15:26:26.688Z,12.71
2023-05-23T15:28:56.220Z,12.73
2023-05-23T15:31:23.891Z,12.78
2023-05-23T15:33:51.603Z,12.71
2023-05-23T15:36:19.240Z,12.65
2023-05-23T15:38:46.893Z,12.45
2023-05-23T15:41:14.589Z,12.58
2023-05-23T15:43:42.220Z,12.38
2023-05-23T15:46:11.315Z,12.30
2023-05-23T15:48:38.988Z,12.35
2023-05-23T15:51:07.151Z,12.40
2023-05-23T15:53:43.252Z,12.26
2023-05-23T15:56:22.730Z,12.33
2023-05-23T15:58:50.356Z,12.20
2023-05-23T16:01:19.493Z,12.03
2023-05-23T16:03:47.261Z,12.07
2023-05-23T16:06:15.247Z,11.88
2023-05-23T16:08:42.854Z,11.89
2023-05-23T16:11:10.567Z,11.86
2023-05-23T16:13:38.277Z,11.98
2023-05-23T16:16:06.407Z,11.94
2023-05-23T16:18:35.732Z,11.96
2023-05-23T16:21:03.480Z,11.99
2023-05-23T16:23:31.235Z,11.87
2023-05-23T16:25:58.912Z,11.85
2023-05-23T16:28:28.490Z,11.83
2023-05-23T16:30:56.738Z,11.80
2023-05-23T16:33:24.621Z,11.65
2023-05-23T16:35:53.594Z,11.68
2023-05-23T16:38:21.270Z,11.72
2023-05-23T16:40:49.055Z,11.44
2023-05-23T16:43:16.860Z,11.49
2023-05-23T16:45:44.692Z,11.45
2023-05-23T16:48:12.556Z,11.50
2023-05-23T16:50:40.718Z,11.62
2023-05-23T16:53:09.866Z,11.51
2023-05-23T16:55:37.482Z,11.40
2023-05-23T16:58:05.138Z,11.40
2023-05-23T17:00:32.760Z,11.24
2023-05-23T17:03:00.744Z,11.28
2023-05-23T17:05:28.538Z,11.38
2023-05-23T17:07:56.284Z,11.43
2023-05-23T17:10:25.567Z,11.33
2023-05-23T17:12:53.224Z,11.25
2023-05-23T17:15:21.227Z,11.20
2023-05-23T17:17:48.898Z,11.17
2023-05-23T17:20:16.768Z,11.14
2023-05-23T17:22:44.596Z,11.30
2023-05-23T17:25:12.319Z,11.27
2023-05-23T17:27:42.074Z,11.13
2023-05-23T17:30:14.514Z,11.09
2023-05-23T17:32:43.314Z,11.28
2023-05-23T17:35:11.786Z,11.13
2023-05-23T17:37:43.139Z,11.07
2023-05-23T17:40:11.847Z,11.02
2023-05-23T17:42:41.811Z,11.01
2023-05-23T17:45:10.501Z,11.03
2023-05-23T17:47:38.139Z,11.06
2023-05-23T17:50:07.279Z,10.95
2023-05-23T17:52:35.189Z,10.97
2023-05-23T17:55:03.007Z,11.00
2023-05-23T17:57:31.271Z,10.96
2023-05-23T18:00:00.479Z,10.81
2023-05-23T18:02:28.275Z,10.83
2023-05-23T18:04:56.541Z,10.82
2023-05-23T18:07:24.434Z,10.85
2023-05-23T18:09:52.144Z,10.86
2023-05-23T18:12:19.808Z,10.83
2023-05-23T18:14:48.255Z,10.81
2023-05-23T18:17:18.518Z,10.74
2023-05-23T18:19:46.572Z,10.84
2023-05-23T18:22:14.316Z,10.80
2023-05-23T18:24:41.992Z,10.79
2023-05-23T18:27:09.673Z,10.81
2023-05-23T18:29:37.501Z,10.83
2023-05-23T18:32:05.576Z,10.72
2023-05-23T18:34:34.562Z,10.73
2023-05-23T18:37:03.093Z,10.77
2023-05-23T18:39:31.168Z,10.73
2023-05-23T18:41:58.952Z,10.74
2023-05-23T18:44:26.802Z,10.73
2023-05-23T18:46:54.546Z,10.66
2023-05-23T18:49:22.296Z,10.71
2023-05-23T18:51:54.301Z,10.69
2023-05-23T18:54:22.080Z,10.69
2023-05-23T18:56:49.710Z,10.64
2023-05-23T18:59:17.609Z,10.70
2023-05-23T19:01:46.948Z,10.70
2023-05-23T19:04:15.000Z,10.63
2023-05-23T19:06:42.799Z,10.51
2023-05-23T19:09:11.986Z,10.59
2023-05-23T19:11:40.063Z,10.59
2023-05-23T19:14:08.811Z,10.57
2023-05-23T19:16:36.499Z,10.57
2023-05-23T19:19:04.426Z,10.59
2023-05-23T19:21:32.537Z,10.55
2023-05-23T19:24:00.521Z,10.51
2023-05-23T19:26:29.952Z,10.57
2023-05-23T19:28:57.703Z,10.57
2023-05-23T19:31:25.491Z,10.60
2023-05-23T19:33:53.212Z,10.59
2023-05-23T19:36:21.220Z,10.61
2023-05-23T19:38:48.858Z,10.55
2023-05-23T19:41:17.438Z,10.54
2023-05-23T19:43:47.872Z,10.52
2023-05-23T19:46:15.949Z,10.57
2023-05-23T19:48:43.792Z,10.56
2023-05-23T19:51:11.733Z,10.55
2023-05-23T19:53:39.390Z,10.52
2023-05-23T19:56:07.242Z,10.56
2023-05-23T19:58:36.072Z,10.49
2023-05-23T20:01:05.332Z,10.54
2023-05-23T20:03:33.042Z,10.50
2023-05-23T20:06:00.735Z,10.49
2023-05-23T20:08:28.440Z,10.45
2023-05-23T20:10:56.301Z,10.51
2023-05-23T20:13:23.960Z,10.50
2023-05-23T20:15:52.030Z,10.46
2023-05-23T20:18:21.495Z,10.43
2023-05-23T20:20:49.187Z,10.38
2023-05-23T20:23:16.855Z,10.41
2023-05-23T20:25:44.505Z,10.26
2023-05-23T20:28:12.177Z,10.33
2023-05-23T20:30:39.911Z,10.31
2023-05-23T20:33:07.757Z,10.33
2023-05-23T20:35:36.915Z,10.26
2023-05-23T20:38:04.787Z,10.25
2023-05-23T20:40:33.630Z,10.29
2023-05-23T20:43:04.714Z,10.28
2023-05-23T20:45:33.134Z,10.19
2023-05-23T20:48:01.144Z,10.19
2023-05-23T20:50:31.256Z,10.23
2023-05-23T20:53:02.221Z,10.11
2023-05-23T20:55:30.513Z,10.12
2023-05-23T20:57:58.133Z,10.06
2023-05-23T21:00:25.761Z,10.12
2023-05-23T21:02:54.683Z,10.06
2023-05-23T21:05:22.378Z,9.99
2023-05-23T21:07:50.029Z,10.11
2023-05-23T21:10:19.174Z,10.14
2023-05-23T21:12:50.112Z,10.01
2023-05-23T21:15:18.563Z,10.03
2023-05-23T21:17:46.445Z,9.97
2023-05-23T21:20:14.568Z,10.07
2023-05-23T21:22:42.484Z,10.01
2023-05-23T21:25:11.001Z,10.07
2023-05-23T21:27:40.248Z,10.13
2023-05-23T21:30:09.303Z,10.17
2023-05-23T21:32:37.059Z,10.15
2023-05-23T21:35:05.106Z,10.18
2023-05-23T21:37:32.971Z,10.19
2023-05-23T21:40:00.658Z,10.22
2023-05-23T21:42:28.654Z,10.17
2023-05-23T21:44:57.758Z,10.20
2023-05-23T21:47:26.195Z,10.24
2023-05-23T21:49:54.190Z,10.28
2023-05-23T21:52:22.617Z,10.29
2023-05-23T21:54:50.274Z,10.28
2023-05-23T21:57:17.958Z,10.29
2023-05-23T21:59:45.741Z,10.32
2023-05-23T22:02:15.415Z,10.30
2023-05-23T22:04:43.214Z,10.31
2023-05-23T22:07:10.857Z,10.30
2023-05-23T22:09:38.605Z,10.36
2023-05-23T22:12:07.440Z,10.36
2023-05-23T22:14:35.121Z,10.34
2023-05-23T22:17:03.735Z,10.35
2023-05-23T22:19:32.762Z,10.36
2023-05-23T22:22:00.691Z,10.35
2023-05-23T22:24:29.178Z,10.31
2023-05-23T22:26:58.227Z,10.29
2023-05-23T22:29:26.288Z,10.33
2023-05-23T22:31:54.144Z,10.29
2023-05-23T22:34:21.820Z,10.38
2023-05-23T22:36:50.932Z,10.39
2023-05-23T22:39:18.571Z,10.40
2023-05-23T22:41:46.680Z,10.32
2023-05-23T22:44:14.317Z,10.32
2023-05-23T22:46:43.366Z,10.30
2023-05-23T22:49:11.105Z,10.28
2023-05-23T22:51:38.862Z,10.29
2023-05-23T22:54:08.076Z,10.36
2023-05-23T22:56:35.737Z,10.31
2023-05-23T22:59:03.341Z,10.34
2023-05-23T23:01:31.563Z,10.37
2023-05-23T23:03:59.615Z,10.32
2023-05-23T23:06:27.307Z,10.30
2023-05-23T23:08:55.009Z,10.35
2023-05-23T23:11:24.009Z,10.33
2023-05-23T23:13:51.952Z,10.36
2023-05-23T23:16:21.005Z,10.39
2023-05-23T23:18:49.025Z,10.38
2023-05-23T23:21:16.656Z,10.38
2023-05-23T23:23:44.324Z,10.36
2023-05-23T23:26:12.121Z,10.36
2023-05-23T23:28:41.156Z,10.36
2023-05-23T23:31:08.871Z,10.41
2023-05-23T23:33:36.473Z,10.34
2023-05-23T23:36:04.535Z,10.47
2023-05-23T23:38:32.189Z,10.44
2023-05-23T23:40:59.824Z,10.43
2023-05-23T23:43:27.452Z,10.46
2023-05-23T23:45:57.243Z,10.43
2023-05-23T23:48:24.869Z,10.42
2023-05-23T23:50:52.545Z,10.42
2023-05-23T23:53:21.356Z,10.43
2023-05-23T23:55:49.119Z,10.47
2023-05-23T23:58:17.324Z,10.46
